createdAt,value
2023-01-05T00:01:06.950Z,15.41
2023-01-05T00:03:35.520Z,15.46
2023-01-05T00:06:04.866Z,15.41
2023-01-05T00:08:37.140Z,15.72
2023-01-05T00:11:25.071Z,15.65
2023-01-05T00:14:11.110Z,15.99
2023-01-05T00:16:57.371Z,16.04
2023-01-05T00:19:43.461Z,15.54
2023-01-05T00:22:31.102Z,15.58
2023-01-05T00:25:11.224Z,15.47
2023-01-05T00:27:41.045Z,15.43
2023-01-05T00:30:10.716Z,15.27
2023-01-05T00:32:38.294Z,15.00
2023-01-05T00:35:05.869Z,15.26
2023-01-05T00:37:35.565Z,15.46
2023-01-05T00:40:02.850Z,15.22
2023-01-05T00:42:30.256Z,15.47
2023-01-05T00:44:57.500Z,15.63
2023-01-05T00:47:25.076Z,15.07
2023-01-05T00:49:52.452Z,15.26
2023-01-05T00:52:19.836Z,14.78
2023-01-05T00:54:47.187Z,14.68
2023-01-05T00:57:14.931Z,14.74
2023-01-05T00:59:42.920Z,14.68
2023-01-05T01:02:10.375Z,14.74
2023-01-05T01:04:38.748Z,14.80
2023-01-05T01:07:06.495Z,14.75
2023-01-05T01:09:34.328Z,15.03
2023-01-05T01:12:01.847Z,14.99
2023-01-05T01:14:29.339Z,15.35
2023-01-05T01:16:56.970Z,15.51
2023-01-05T01:19:26.056Z,15.75
2023-01-05T01:21:54.483Z,15.85
2023-01-05T01:24:41.784Z,15.47
2023-01-05T01:27:09.173Z,15.09
2023-01-05T01:29:36.471Z,14.76
2023-01-05T01:32:04.153Z,14.88
2023-01-05T01:34:31.537Z,14.62
2023-01-05T01:37:00.268Z,14.48
2023-01-05T01:39:33.374Z,14.74
2023-01-05T01:42:06.402Z,14.72
2023-01-05T01:44:53.345Z,14.78
2023-01-05T01:47:28.930Z,14.87
2023-01-05T01:49:58.404Z,14.88
2023-01-05T01:52:27.041Z,15.20
2023-01-05T01:54:54.751Z,15.31
2023-01-05T01:57:22.187Z,15.46
2023-01-05T01:59:49.912Z,15.53
2023-01-05T02:02:17.911Z,15.44
2023-01-05T02:04:45.961Z,15.63
2023-01-05T02:07:15.651Z,15.74
2023-01-05T02:09:43.854Z,15.54
2023-01-05T02:12:29.802Z,15.42
2023-01-05T02:15:10.998Z,15.39
2023-01-05T02:18:03.091Z,15.62
2023-01-05T02:20:59.951Z,15.45
2023-01-05T02:23:46.943Z,15.46
2023-01-05T02:26:33.612Z,15.19
2023-01-05T02:29:11.177Z,15.15
2023-01-05T02:32:25.903Z,15.44
2023-01-05T02:35:06.739Z,15.27
2023-01-05T02:37:46.304Z,15.20
2023-01-05T02:40:20.087Z,14.84
2023-01-05T02:42:49.432Z,15.15
2023-01-05T02:45:18.343Z,14.70
2023-01-05T02:47:46.076Z,14.78
2023-01-05T02:50:22.232Z,14.57
2023-01-05T02:53:13.963Z,14.08
2023-01-05T02:56:06.878Z,14.45
2023-01-05T02:58:47.573Z,14.40
2023-01-05T03:01:20.665Z,14.35
2023-01-05T03:03:56.180Z,14.50
2023-01-05T03:06:47.276Z,14.24
2023-01-05T03:09:20.027Z,13.83
2023-01-05T03:12:13.200Z,13.86
2023-01-05T03:14:57.702Z,14.24
2023-01-05T03:17:30.335Z,14.76
2023-01-05T03:19:58.922Z,14.93
2023-01-05T03:22:49.961Z,15.21
2023-01-05T03:25:39.342Z,14.92
2023-01-05T03:28:40.042Z,14.54
2023-01-05T03:31:54.643Z,14.28
2023-01-05T03:35:05.635Z,14.84
2023-01-05T03:37:45.576Z,15.17
2023-01-05T03:40:18.447Z,14.80
2023-01-05T03:42:46.857Z,14.62
2023-01-05T03:45:15.655Z,14.77
2023-01-05T03:47:43.318Z,14.30
2023-01-05T03:50:10.895Z,15.00
2023-01-05T03:52:38.250Z,15.18
2023-01-05T03:55:05.908Z,15.17
2023-01-05T03:57:33.904Z,15.31
2023-01-05T04:00:01.279Z,14.73
2023-01-05T04:02:29.887Z,14.24
2023-01-05T04:04:57.572Z,14.68
2023-01-05T04:07:25.935Z,14.85
2023-01-05T04:09:53.913Z,15.32
2023-01-05T04:12:21.864Z,15.25
2023-01-05T04:14:51.140Z,15.35
2023-01-05T04:17:18.585Z,15.56
2023-01-05T04:19:46.055Z,15.51
2023-01-05T04:22:14.156Z,15.59
2023-01-05T04:24:43.467Z,15.38
2023-01-05T04:27:10.867Z,15.69
2023-01-05T04:29:39.625Z,15.64
2023-01-05T04:32:07.071Z,15.64
2023-01-05T04:34:34.511Z,14.86
2023-01-05T04:37:01.980Z,14.79
2023-01-05T04:39:31.382Z,14.99
2023-01-05T04:41:58.890Z,14.61
2023-01-05T04:44:26.414Z,14.98
2023-01-05T04:46:55.810Z,15.33
2023-01-05T04:49:23.578Z,14.87
2023-01-05T04:51:52.393Z,14.82
2023-01-05T04:54:22.266Z,14.18
2023-01-05T04:56:49.526Z,14.37
2023-01-05T04:59:17.009Z,14.43
2023-01-05T05:01:44.936Z,14.87
2023-01-05T05:04:13.843Z,14.67
2023-01-05T05:06:41.423Z,14.56
2023-01-05T05:09:08.865Z,14.70
2023-01-05T05:11:38.255Z,14.53
2023-01-05T05:14:05.536Z,14.39
2023-01-05T05:16:32.851Z,15.02
2023-01-05T05:19:01.308Z,14.77
2023-01-05T05:21:28.931Z,15.22
2023-01-05T05:23:56.544Z,15.32
2023-01-05T05:26:23.802Z,15.03
2023-01-05T05:28:52.031Z,15.16
2023-01-05T05:31:19.503Z,14.65
2023-01-05T05:33:47.008Z,14.99
2023-01-05T05:36:15.284Z,15.22
2023-01-05T05:38:42.500Z,15.41
2023-01-05T05:41:09.874Z,15.58
2023-01-05T05:43:37.135Z,15.50
2023-01-05T05:46:04.637Z,15.55
2023-01-05T05:48:32.140Z,15.58
2023-01-05T05:50:59.620Z,15.07
2023-01-05T05:53:26.957Z,15.17
2023-01-05T05:55:54.208Z,15.10
2023-01-05T05:58:21.531Z,14.62
2023-01-05T06:00:48.824Z,14.97
2023-01-05T06:03:16.270Z,15.39
2023-01-05T06:05:44.586Z,15.17
2023-01-05T06:08:11.945Z,15.24
2023-01-05T06:10:39.309Z,14.78
2023-01-05T06:13:06.604Z,15.06
2023-01-05T06:15:33.861Z,15.06
2023-01-05T06:18:01.125Z,14.82
2023-01-05T06:20:28.413Z,14.50
2023-01-05T06:22:55.732Z,14.76
2023-01-05T06:25:23.138Z,14.73
2023-01-05T06:27:50.420Z,14.68
2023-01-05T06:30:17.777Z,15.05
2023-01-05T06:32:45.241Z,15.27
2023-01-05T06:35:12.487Z,14.78
2023-01-05T06:37:39.778Z,14.78
2023-01-05T06:40:08.856Z,14.85
2023-01-05T06:42:36.195Z,15.09
2023-01-05T06:45:04.790Z,14.96
2023-01-05T06:47:32.213Z,14.44
2023-01-05T06:49:59.736Z,14.27
2023-01-05T06:52:27.025Z,14.52
2023-01-05T06:54:54.346Z,15.04
2023-01-05T06:57:21.642Z,14.91
2023-01-05T06:59:49.025Z,14.62
2023-01-05T07:02:17.141Z,14.79
2023-01-05T07:04:44.527Z,14.92
2023-01-05T07:07:15.692Z,15.20
2023-01-05T07:09:43.046Z,15.12
2023-01-05T07:12:10.540Z,14.93
2023-01-05T07:14:38.327Z,14.64
2023-01-05T07:17:05.741Z,14.41
2023-01-05T07:19:33.018Z,14.80
2023-01-05T07:22:00.341Z,15.09
2023-01-05T07:24:27.636Z,15.45
2023-01-05T07:26:54.921Z,15.33
2023-01-05T07:29:22.204Z,14.77
2023-01-05T07:31:52.438Z,15.36
2023-01-05T07:34:21.345Z,14.99
2023-01-05T07:36:49.643Z,15.22
2023-01-05T07:39:17.169Z,15.34
2023-01-05T07:41:44.626Z,15.46
2023-01-05T07:44:12.054Z,15.53
2023-01-05T07:46:39.333Z,15.75
2023-01-05T07:49:06.969Z,16.01
2023-01-05T07:51:34.336Z,16.07
2023-01-05T07:54:01.579Z,15.96
2023-01-05T07:56:28.823Z,16.02
2023-01-05T07:58:56.326Z,16.08
2023-01-05T08:01:24.043Z,15.99
2023-01-05T08:03:51.666Z,15.87
2023-01-05T08:06:19.892Z,15.91
2023-01-05T08:08:47.981Z,15.94
2023-01-05T08:11:17.101Z,16.14
2023-01-05T08:14:00.010Z,16.04
2023-01-05T08:16:31.490Z,15.88
2023-01-05T08:18:59.731Z,16.03
2023-01-05T08:21:27.063Z,16.09
2023-01-05T08:23:54.629Z,16.16
2023-01-05T08:26:23.562Z,16.11
2023-01-05T08:28:52.478Z,16.19
2023-01-05T08:31:29.929Z,16.36
2023-01-05T08:34:00.086Z,16.18
2023-01-05T08:36:28.108Z,16.11
2023-01-05T08:38:55.670Z,16.22
2023-01-05T08:41:22.896Z,16.20
2023-01-05T08:43:51.993Z,16.31
2023-01-05T08:46:20.896Z,16.45
2023-01-05T08:48:52.625Z,16.28
2023-01-05T08:51:20.238Z,16.18
2023-01-05T08:53:47.753Z,16.20
2023-01-05T08:56:15.393Z,16.24
2023-01-05T08:58:42.944Z,16.39
2023-01-05T09:01:12.615Z,16.36
2023-01-05T09:03:40.578Z,16.53
2023-01-05T09:06:09.587Z,16.38
2023-01-05T09:08:36.826Z,16.10
2023-01-05T09:11:11.908Z,16.20
2023-01-05T09:13:40.039Z,16.31
2023-01-05T09:16:13.680Z,16.51
2023-01-05T09:18:41.719Z,16.43
2023-01-05T09:21:09.721Z,15.90
2023-01-05T09:23:37.865Z,16.26
2023-01-05T09:26:06.674Z,16.45
2023-01-05T09:28:36.452Z,16.43
2023-01-05T09:31:11.861Z,16.50
2023-01-05T09:33:40.375Z,16.26
2023-01-05T09:36:08.300Z,16.44
2023-01-05T09:38:36.353Z,16.48
2023-01-05T09:41:21.188Z,16.56
2023-01-05T09:43:51.621Z,16.61
2023-01-05T09:46:22.549Z,16.75
2023-01-05T09:48:55.485Z,16.38
2023-01-05T09:51:23.208Z,16.47
2023-01-05T09:53:50.625Z,16.44
2023-01-05T09:59:26.937Z,16.25
2023-01-05T10:01:56.621Z,16.29
2023-01-05T10:04:30.613Z,16.40
2023-01-05T10:07:07.229Z,16.18
2023-01-05T10:09:39.326Z,16.03
2023-01-05T10:12:28.486Z,16.13
2023-01-05T10:15:16.980Z,16.23
2023-01-05T10:17:44.851Z,16.07
2023-01-05T10:20:17.257Z,16.01
2023-01-05T10:22:44.558Z,15.84
2023-01-05T10:25:29.916Z,16.17
2023-01-05T10:28:23.314Z,16.22
2023-01-05T10:31:01.859Z,15.96
2023-01-05T10:33:40.571Z,16.10
2023-01-05T10:37:06.783Z,16.11
2023-01-05T10:39:34.041Z,15.71
2023-01-05T10:42:24.748Z,16.30
2023-01-05T10:44:55.974Z,16.24
2023-01-05T10:47:25.428Z,15.93
2023-01-05T10:49:53.365Z,15.63
2023-01-05T10:52:22.513Z,15.99
2023-01-05T10:54:54.257Z,16.10
2023-01-05T10:57:36.597Z,16.22
2023-01-05T11:00:19.878Z,16.11
2023-01-05T11:02:50.218Z,15.75
2023-01-05T11:05:27.516Z,15.77
2023-01-05T11:08:00.163Z,16.01
2023-01-05T11:10:36.756Z,16.52
2023-01-05T11:13:18.898Z,16.44
2023-01-05T11:15:55.461Z,15.99
2023-01-05T11:18:25.427Z,16.23
2023-01-05T11:21:11.354Z,16.61
2023-01-05T11:23:42.105Z,16.76
2023-01-05T11:26:36.323Z,16.46
2023-01-05T11:29:09.354Z,16.30
2023-01-05T11:31:46.530Z,16.58
2023-01-05T11:34:19.754Z,16.83
2023-01-05T11:37:07.668Z,16.93
2023-01-05T11:39:51.718Z,17.00
2023-01-05T11:42:25.769Z,16.72
2023-01-05T11:44:58.625Z,16.92
2023-01-05T11:47:27.456Z,16.96
2023-01-05T11:49:59.082Z,17.19
2023-01-05T11:52:34.848Z,17.23
2023-01-05T11:55:20.327Z,16.78
2023-01-05T11:57:50.590Z,16.65
2023-01-05T12:00:25.075Z,16.95
2023-01-05T12:03:10.965Z,17.05
2023-01-05T12:05:38.239Z,17.12
2023-01-05T12:08:10.686Z,17.04
2023-01-05T12:11:07.143Z,16.76
2023-01-05T12:13:54.102Z,16.76
2023-01-05T12:16:46.981Z,16.95
2023-01-05T12:19:23.155Z,16.74
2023-01-05T12:22:09.441Z,16.85
2023-01-05T12:25:05.648Z,16.63
2023-01-05T12:27:56.250Z,16.85
2023-01-05T12:34:13.025Z,16.55
2023-01-05T12:37:07.341Z,16.58
2023-01-05T12:39:46.499Z,16.36
2023-01-05T12:42:35.864Z,16.56
2023-01-05T12:45:32.480Z,16.88
2023-01-05T12:48:16.274Z,16.70
2023-01-05T12:51:03.012Z,16.71
2023-01-05T12:53:36.560Z,16.92
2023-01-05T12:56:15.119Z,16.20
2023-01-05T12:58:53.828Z,16.30
2023-01-05T13:01:25.851Z,16.17
2023-01-05T13:04:01.072Z,16.49
2023-01-05T13:06:34.109Z,16.81
2023-01-05T13:09:13.899Z,17.00
2023-01-05T13:11:50.847Z,16.86
2023-01-05T13:14:20.562Z,16.83
2023-01-05T13:16:58.523Z,16.96
2023-01-05T13:19:42.441Z,17.06
2023-01-05T13:22:26.090Z,16.62
2023-01-05T13:25:18.072Z,16.88
2023-01-05T13:27:45.514Z,16.99
2023-01-05T13:30:22.920Z,17.15
2023-01-05T13:32:56.493Z,17.25
2023-01-05T13:35:42.706Z,17.32
2023-01-05T13:38:47.333Z,17.28
2023-01-05T13:41:33.656Z,17.23
2023-01-05T13:44:50.768Z,17.30
2023-01-05T13:47:46.002Z,17.26
2023-01-05T13:50:22.061Z,17.34
2023-01-05T13:53:19.085Z,17.34
2023-01-05T13:55:51.138Z,17.29
2023-01-05T14:01:11.454Z,17.30
2023-01-05T14:03:41.277Z,17.18
2023-01-05T14:06:25.403Z,16.92
2023-01-05T14:08:54.897Z,17.11
2023-01-05T14:11:24.116Z,17.12
2023-01-05T14:13:59.628Z,16.51
2023-01-05T14:16:36.569Z,16.29
2023-01-05T14:19:32.686Z,15.63
2023-01-05T14:22:05.533Z,15.45
2023-01-05T14:24:32.752Z,15.81
2023-01-05T14:27:20.349Z,16.00
2023-01-05T14:29:53.716Z,16.00
2023-01-05T14:32:53.098Z,16.17
2023-01-05T14:35:31.789Z,16.17
2023-01-05T14:38:07.220Z,16.00
2023-01-05T14:40:44.325Z,16.09
2023-01-05T14:43:32.560Z,16.16
2023-01-05T14:46:05.295Z,15.92
2023-01-05T14:48:45.949Z,15.82
2023-01-05T14:51:26.382Z,16.12
2023-01-05T14:53:56.030Z,16.12
2023-01-05T14:56:28.729Z,16.16
2023-01-05T14:59:06.235Z,16.46
2023-01-05T15:01:52.941Z,16.58
2023-01-05T15:04:27.032Z,16.72
2023-01-05T15:06:57.229Z,16.68
2023-01-05T15:09:41.577Z,16.40
2023-01-05T15:12:33.229Z,16.68
2023-01-05T15:15:03.551Z,16.46
2023-01-05T15:17:49.349Z,16.55
2023-01-05T15:20:27.546Z,16.70
2023-01-05T15:23:30.470Z,15.99
2023-01-05T15:26:02.779Z,16.44
2023-01-05T15:28:56.922Z,16.72
2023-01-05T15:31:35.037Z,16.71
2023-01-05T15:34:07.075Z,16.66
2023-01-05T15:36:43.612Z,16.43
2023-01-05T15:39:32.308Z,16.52
2023-01-05T15:42:02.149Z,16.35
2023-01-05T15:44:34.631Z,16.53
2023-01-05T15:47:02.563Z,16.46
2023-01-05T15:49:31.937Z,16.42
2023-01-05T15:51:59.678Z,16.61
2023-01-05T15:54:29.947Z,16.48
2023-01-05T15:56:58.004Z,16.63
2023-01-05T15:59:34.928Z,16.67
2023-01-05T16:02:02.593Z,16.10
2023-01-05T16:04:29.912Z,15.47
2023-01-05T16:07:02.114Z,15.62
2023-01-05T16:09:34.895Z,15.10
2023-01-05T16:12:08.073Z,15.01
2023-01-05T16:14:45.024Z,15.42
2023-01-05T16:17:22.226Z,15.42
2023-01-05T16:19:51.275Z,15.68
2023-01-05T16:22:26.655Z,15.48
2023-01-05T16:25:03.965Z,15.35
2023-01-05T16:27:34.842Z,15.48
2023-01-05T16:30:34.670Z,15.21
2023-01-05T16:33:11.716Z,15.25
2023-01-05T16:35:44.464Z,15.71
2023-01-05T16:38:11.808Z,16.00
2023-01-05T16:40:46.452Z,16.36
2023-01-05T16:43:38.376Z,15.94
2023-01-05T16:46:20.180Z,16.08
2023-01-05T16:48:52.006Z,16.01
2023-01-05T16:51:31.427Z,15.68
2023-01-05T16:54:36.859Z,14.81
2023-01-05T16:57:29.059Z,14.24
2023-01-05T16:59:56.513Z,14.23
2023-01-05T17:02:44.710Z,14.33
2023-01-05T17:05:18.233Z,14.43
2023-01-05T17:07:47.023Z,14.28
2023-01-05T17:10:18.126Z,14.27
2023-01-05T17:12:53.028Z,14.25
2023-01-05T17:15:23.864Z,14.17
2023-01-05T17:17:54.393Z,14.21
2023-01-05T17:20:23.045Z,14.61
2023-01-05T17:22:50.678Z,14.63
2023-01-05T17:25:18.293Z,14.92
2023-01-05T17:27:46.352Z,15.18
2023-01-05T17:30:19.695Z,15.26
2023-01-05T17:32:47.238Z,15.31
2023-01-05T17:35:16.120Z,15.71
2023-01-05T17:37:46.030Z,15.79
2023-01-05T17:40:17.898Z,15.89
2023-01-05T17:42:45.922Z,16.03
2023-01-05T17:45:26.167Z,15.98
2023-01-05T17:47:54.060Z,15.70
2023-01-05T17:50:27.966Z,15.78
2023-01-05T17:52:55.671Z,16.01
2023-01-05T17:55:23.496Z,15.60
2023-01-05T17:57:51.089Z,15.57
2023-01-05T18:00:22.203Z,15.68
2023-01-05T18:02:50.679Z,15.57
2023-01-05T18:05:18.408Z,15.69
2023-01-05T18:07:45.837Z,15.82
2023-01-05T18:10:17.332Z,15.91
2023-01-05T18:12:44.756Z,15.89
2023-01-05T18:15:12.588Z,15.93
2023-01-05T18:17:40.187Z,15.91
2023-01-05T18:20:08.157Z,15.86
2023-01-05T18:22:37.467Z,15.89
2023-01-05T18:27:35.583Z,15.76
2023-01-05T18:30:04.696Z,15.86
2023-01-05T18:32:32.353Z,15.94
2023-01-05T18:34:59.660Z,15.75
2023-01-05T18:39:59.425Z,15.67
2023-01-05T18:42:26.752Z,15.71
2023-01-05T18:44:54.183Z,15.81
2023-01-05T18:47:21.484Z,15.78
2023-01-05T18:49:49.468Z,15.44
2023-01-05T18:52:16.831Z,15.70
2023-01-05T18:54:45.274Z,15.64
2023-01-05T18:57:12.559Z,15.56
2023-01-05T18:59:40.037Z,15.66
2023-01-05T19:02:13.169Z,15.74
2023-01-05T19:04:40.436Z,15.72
2023-01-05T19:07:08.379Z,15.89
2023-01-05T19:09:35.827Z,15.61
2023-01-05T19:12:03.104Z,15.69
2023-01-05T19:14:30.816Z,15.68
2023-01-05T19:16:58.233Z,15.87
2023-01-05T19:19:25.678Z,15.92
2023-01-05T19:21:54.006Z,16.01
2023-01-05T19:24:23.836Z,15.85
2023-01-05T19:26:51.497Z,15.93
2023-01-05T19:29:19.777Z,15.85
2023-01-05T19:31:49.040Z,15.51
2023-01-05T19:34:19.383Z,15.86
2023-01-05T19:36:47.290Z,15.95
2023-01-05T19:39:17.968Z,15.80
2023-01-05T19:41:47.628Z,15.93
2023-01-05T19:44:18.232Z,15.87
2023-01-05T19:46:46.141Z,15.79
2023-01-05T19:49:16.905Z,15.62
2023-01-05T19:51:45.453Z,15.70
2023-01-05T19:54:14.057Z,15.72
2023-01-05T19:56:42.225Z,15.88
2023-01-05T19:59:22.759Z,15.70
2023-01-05T20:01:50.387Z,15.63
2023-01-05T20:04:17.893Z,15.95
2023-01-05T20:06:46.161Z,15.86
2023-01-05T20:09:16.397Z,15.89
2023-01-05T20:11:45.056Z,15.69
2023-01-05T20:14:24.461Z,15.86
2023-01-05T20:16:54.161Z,15.78
2023-01-05T20:19:22.804Z,15.84
2023-01-05T20:21:51.193Z,16.01
2023-01-05T20:24:23.694Z,15.96
2023-01-05T20:26:53.522Z,15.75
2023-01-05T20:29:22.143Z,15.94
2023-01-05T20:31:55.851Z,15.85
2023-01-05T20:34:25.305Z,15.80
2023-01-05T20:36:54.024Z,15.36
2023-01-05T20:39:22.534Z,15.63
2023-01-05T20:41:51.807Z,15.76
2023-01-05T20:44:21.476Z,15.82
2023-01-05T20:46:50.457Z,15.85
2023-01-05T20:49:17.925Z,15.85
2023-01-05T20:51:45.884Z,15.80
2023-01-05T20:54:13.729Z,15.67
2023-01-05T20:56:43.648Z,15.85
2023-01-05T20:59:15.093Z,15.76
2023-01-05T21:01:42.572Z,15.62
2023-01-05T21:04:09.987Z,15.34
2023-01-05T21:06:37.445Z,15.68
2023-01-05T21:09:05.348Z,15.81
2023-01-05T21:11:32.756Z,15.82
2023-01-05T21:14:01.902Z,15.86
2023-01-05T21:16:32.458Z,15.52
2023-01-05T21:19:01.311Z,15.60
2023-01-05T21:21:29.580Z,15.56
2023-01-05T21:23:57.022Z,15.67
2023-01-05T21:26:24.629Z,15.94
2023-01-05T21:28:53.484Z,15.74
2023-01-05T21:31:23.713Z,15.90
2023-01-05T21:33:51.570Z,15.86
2023-01-05T21:36:21.962Z,15.52
2023-01-05T21:39:00.744Z,15.14
2023-01-05T21:41:53.448Z,15.07
2023-01-05T21:44:20.950Z,15.05
2023-01-05T21:46:48.782Z,15.02
2023-01-05T21:49:17.029Z,15.04
2023-01-05T21:52:03.134Z,14.79
2023-01-05T21:54:49.458Z,14.94
2023-01-05T21:57:16.853Z,14.87
2023-01-05T21:59:44.511Z,14.89
2023-01-05T22:02:13.306Z,14.96
2023-01-05T22:04:41.058Z,15.00
2023-01-05T22:07:08.403Z,14.98
2023-01-05T22:09:36.592Z,14.92
2023-01-05T22:12:08.503Z,15.01
2023-01-05T22:14:37.229Z,14.99
2023-01-05T22:17:06.294Z,15.07
2023-01-05T22:19:33.673Z,15.46
2023-01-05T22:22:02.307Z,15.59
2023-01-05T22:24:29.683Z,15.71
2023-01-05T22:26:57.023Z,15.71
2023-01-05T22:29:24.987Z,15.64
2023-01-05T22:31:52.673Z,15.63
2023-01-05T22:34:20.069Z,15.59
2023-01-05T22:36:47.359Z,15.44
2023-01-05T22:39:14.825Z,15.47
2023-01-05T22:41:42.229Z,15.45
2023-01-05T22:44:09.607Z,15.22
2023-01-05T22:46:36.858Z,15.38
2023-01-05T22:49:04.344Z,15.44
2023-01-05T22:51:34.247Z,15.38
2023-01-05T22:54:02.038Z,15.52
2023-01-05T22:56:31.893Z,15.49
2023-01-05T22:58:59.905Z,15.45
2023-01-05T23:01:30.681Z,15.33
2023-01-05T23:03:59.312Z,15.35
2023-01-05T23:06:27.141Z,15.30
2023-01-05T23:08:54.959Z,15.34
2023-01-05T23:11:30.439Z,15.20
2023-01-05T23:13:58.653Z,15.13
2023-01-05T23:16:26.549Z,15.09
2023-01-05T23:18:54.307Z,15.24
2023-01-05T23:21:23.831Z,15.46
2023-01-05T23:23:52.262Z,15.35
2023-01-05T23:26:20.478Z,15.37
2023-01-05T23:28:48.143Z,15.26
2023-01-05T23:31:16.495Z,15.27
2023-01-05T23:33:44.120Z,15.46
2023-01-05T23:36:13.033Z,15.18
2023-01-05T23:38:40.351Z,15.20
2023-01-05T23:41:08.883Z,15.33
2023-01-05T23:43:37.952Z,15.34
2023-01-05T23:46:16.404Z,15.29
2023-01-05T23:48:44.067Z,15.38
2023-01-05T23:51:16.634Z,15.19
2023-01-05T23:53:46.838Z,15.35
2023-01-05T23:56:18.400Z,15.29
2023-01-05T23:58:47.118Z,15.19
